sensor_id;sensor_type;location;lat;lon;timestamp;P1;durP1;ratioP1;P2;durP2;ratioP2
26920;SDS011;14483;47.844;9.660;2024-01-30T00:02:09;11.93;;;4.97;;
26920;SDS011;14483;47.844;9.660;2024-01-30T00:04:36;14.38;;;6.40;;
26920;SDS011;14483;47.844;9.660;2024-01-30T00:07:03;12.25;;;6.22;;
26920;SDS011;14483;47.844;9.660;2024-01-30T00:09:30;12.98;;;6.65;;
26920;SDS011;14483;47.844;9.660;2024-01-30T00:11:56;14.50;;;6.88;;
26920;SDS011;14483;47.844;9.660;2024-01-30T00:14:23;13.75;;;6.78;;
26920;SDS011;14483;47.844;9.660;2024-01-30T00:16:50;14.38;;;6.28;;
26920;SDS011;14483;47.844;9.660;2024-01-30T00:19:17;12.60;;;6.07;;
26920;SDS011;14483;47.844;9.660;2024-01-30T00:21:43;16.75;;;5.80;;
26920;SDS011;14483;47.844;9.660;2024-01-30T00:24:11;14.25;;;5.85;;
26920;SDS011;14483;47.844;9.660;2024-01-30T00:26:37;10.85;;;5.70;;
26920;SDS011;14483;47.844;9.660;2024-01-30T00:29:04;11.43;;;6.20;;
26920;SDS011;14483;47.844;9.660;2024-01-30T00:31:30;13.98;;;5.95;;
26920;SDS011;14483;47.844;9.660;2024-01-30T00:33:56;10.88;;;6.13;;
26920;SDS011;14483;47.844;9.660;2024-01-30T00:36:23;11.13;;;5.30;;
26920;SDS011;14483;47.844;9.660;2024-01-30T00:38:49;10.27;;;5.63;;
26920;SDS011;14483;47.844;9.660;2024-01-30T00:41:18;12.27;;;6.00;;
26920;SDS011;14483;47.844;9.660;2024-01-30T00:43:44;13.77;;;6.28;;
26920;SDS011;14483;47.844;9.660;2024-01-30T00:46:11;13.60;;;6.28;;
26920;SDS011;14483;47.844;9.660;2024-01-30T00:48:37;14.90;;;6.50;;
26920;SDS011;14483;47.844;9.660;2024-01-30T00:51:04;10.85;;;5.80;;
26920;SDS011;14483;47.844;9.660;2024-01-30T00:53:30;11.82;;;6.00;;
26920;SDS011;14483;47.844;9.660;2024-01-30T00:55:56;12.65;;;6.13;;
26920;SDS011;14483;47.844;9.660;2024-01-30T00:58:24;10.13;;;5.55;;
26920;SDS011;14483;47.844;9.660;2024-01-30T01:00:49;12.60;;;6.13;;
26920;SDS011;14483;47.844;9.660;2024-01-30T01:03:16;10.40;;;5.75;;
26920;SDS011;14483;47.844;9.660;2024-01-30T01:05:42;13.38;;;6.43;;
26920;SDS011;14483;47.844;9.660;2024-01-30T01:08:09;12.18;;;6.55;;
26920;SDS011;14483;47.844;9.660;2024-01-30T01:10:35;11.00;;;6.32;;
26920;SDS011;14483;47.844;9.660;2024-01-30T01:13:01;11.30;;;5.72;;
26920;SDS011;14483;47.844;9.660;2024-01-30T01:15:29;14.05;;;5.82;;
26920;SDS011;14483;47.844;9.660;2024-01-30T01:17:55;10.70;;;5.35;;
26920;SDS011;14483;47.844;9.660;2024-01-30T01:20:22;11.70;;;6.15;;
26920;SDS011;14483;47.844;9.660;2024-01-30T01:22:48;10.65;;;5.22;;
26920;SDS011;14483;47.844;9.660;2024-01-30T01:25:14;10.50;;;5.22;;
26920;SDS011;14483;47.844;9.660;2024-01-30T01:27:41;11.77;;;6.50;;
26920;SDS011;14483;47.844;9.660;2024-01-30T01:30:09;11.20;;;6.38;;
26920;SDS011;14483;47.844;9.660;2024-01-30T01:32:38;10.05;;;4.80;;
26920;SDS011;14483;47.844;9.660;2024-01-30T01:37:36;11.07;;;5.13;;
26920;SDS011;14483;47.844;9.660;2024-01-30T01:40:02;10.30;;;5.78;;
26920;SDS011;14483;47.844;9.660;2024-01-30T01:42:29;11.75;;;5.85;;
26920;SDS011;14483;47.844;9.660;2024-01-30T01:44:55;11.13;;;5.72;;
26920;SDS011;14483;47.844;9.660;2024-01-30T01:47:21;11.75;;;5.60;;
26920;SDS011;14483;47.844;9.660;2024-01-30T01:49:49;10.70;;;5.25;;
26920;SDS011;14483;47.844;9.660;2024-01-30T01:52:15;10.15;;;5.40;;
26920;SDS011;14483;47.844;9.660;2024-01-30T01:54:42;12.05;;;5.32;;
26920;SDS011;14483;47.844;9.660;2024-01-30T01:57:09;11.90;;;5.47;;
26920;SDS011;14483;47.844;9.660;2024-01-30T01:59:35;10.93;;;5.93;;
26920;SDS011;14483;47.844;9.660;2024-01-30T02:02:02;13.07;;;5.80;;
26920;SDS011;14483;47.844;9.660;2024-01-30T02:04:29;11.57;;;5.53;;
26920;SDS011;14483;47.844;9.660;2024-01-30T02:06:57;13.13;;;6.20;;
26920;SDS011;14483;47.844;9.660;2024-01-30T02:09:23;15.80;;;6.97;;
26920;SDS011;14483;47.844;9.660;2024-01-30T02:11:50;9.65;;;5.40;;
26920;SDS011;14483;47.844;9.660;2024-01-30T02:14:16;12.50;;;6.07;;
26920;SDS011;14483;47.844;9.660;2024-01-30T02:16:43;16.67;;;6.55;;
26920;SDS011;14483;47.844;9.660;2024-01-30T02:19:09;14.45;;;6.43;;
26920;SDS011;14483;47.844;9.660;2024-01-30T02:21:37;11.52;;;5.57;;
26920;SDS011;14483;47.844;9.660;2024-01-30T02:24:03;13.55;;;6.78;;
26920;SDS011;14483;47.844;9.660;2024-01-30T02:26:30;12.20;;;6.28;;
26920;SDS011;14483;47.844;9.660;2024-01-30T02:28:57;11.38;;;6.50;;
26920;SDS011;14483;47.844;9.660;2024-01-30T02:31:24;14.13;;;6.75;;
26920;SDS011;14483;47.844;9.660;2024-01-30T02:33:51;11.57;;;5.60;;
26920;SDS011;14483;47.844;9.660;2024-01-30T02:36:17;15.35;;;6.55;;
26920;SDS011;14483;47.844;9.660;2024-01-30T02:38:45;12.27;;;5.18;;
26920;SDS011;14483;47.844;9.660;2024-01-30T02:41:11;11.55;;;5.93;;
26920;SDS011;14483;47.844;9.660;2024-01-30T02:43:37;11.93;;;5.40;;
26920;SDS011;14483;47.844;9.660;2024-01-30T02:46:04;12.30;;;6.03;;
26920;SDS011;14483;47.844;9.660;2024-01-30T02:48:30;10.38;;;5.40;;
26920;SDS011;14483;47.844;9.660;2024-01-30T02:50:57;9.40;;;5.22;;
26920;SDS011;14483;47.844;9.660;2024-01-30T02:53:24;12.25;;;6.00;;
26920;SDS011;14483;47.844;9.660;2024-01-30T02:55:51;10.20;;;5.07;;
26920;SDS011;14483;47.844;9.660;2024-01-30T02:58:18;10.70;;;5.68;;
26920;SDS011;14483;47.844;9.660;2024-01-30T03:00:44;11.40;;;5.50;;
26920;SDS011;14483;47.844;9.660;2024-01-30T03:03:10;9.10;;;5.50;;
26920;SDS011;14483;47.844;9.660;2024-01-30T03:05:37;13.85;;;5.93;;
26920;SDS011;14483;47.844;9.660;2024-01-30T03:08:04;9.98;;;6.18;;
26920;SDS011;14483;47.844;9.660;2024-01-30T03:10:30;10.52;;;5.53;;
26920;SDS011;14483;47.844;9.660;2024-01-30T03:12:58;11.10;;;6.40;;
26920;SDS011;14483;47.844;9.660;2024-01-30T03:15:24;12.10;;;6.22;;
26920;SDS011;14483;47.844;9.660;2024-01-30T03:17:51;10.93;;;5.43;;
26920;SDS011;14483;47.844;9.660;2024-01-30T03:20:17;14.00;;;6.28;;
26920;SDS011;14483;47.844;9.660;2024-01-30T03:22:43;11.65;;;6.32;;
26920;SDS011;14483;47.844;9.660;2024-01-30T03:25:10;12.50;;;6.20;;
26920;SDS011;14483;47.844;9.660;2024-01-30T03:27:36;12.50;;;6.22;;
26920;SDS011;14483;47.844;9.660;2024-01-30T03:30:04;10.05;;;5.28;;
26920;SDS011;14483;47.844;9.660;2024-01-30T03:32:30;10.57;;;4.82;;
26920;SDS011;14483;47.844;9.660;2024-01-30T03:34:56;12.50;;;5.75;;
26920;SDS011;14483;47.844;9.660;2024-01-30T03:37:23;9.68;;;5.22;;
26920;SDS011;14483;47.844;9.660;2024-01-30T03:39:49;7.72;;;4.22;;
26920;SDS011;14483;47.844;9.660;2024-01-30T03:42:15;10.48;;;5.60;;
26920;SDS011;14483;47.844;9.660;2024-01-30T03:44:42;8.50;;;5.28;;
26920;SDS011;14483;47.844;9.660;2024-01-30T03:47:10;9.35;;;5.22;;
26920;SDS011;14483;47.844;9.660;2024-01-30T03:49:36;14.20;;;6.75;;
26920;SDS011;14483;47.844;9.660;2024-01-30T03:52:03;10.30;;;5.00;;
26920;SDS011;14483;47.844;9.660;2024-01-30T03:54:29;11.80;;;5.15;;
26920;SDS011;14483;47.844;9.660;2024-01-30T03:56:55;8.32;;;4.85;;
26920;SDS011;14483;47.844;9.660;2024-01-30T03:59:22;10.85;;;5.18;;
26920;SDS011;14483;47.844;9.660;2024-01-30T04:01:49;10.85;;;4.40;;
26920;SDS011;14483;47.844;9.660;2024-01-30T04:04:17;8.77;;;4.97;;
26920;SDS011;14483;47.844;9.660;2024-01-30T04:06:43;7.63;;;5.13;;
26920;SDS011;14483;47.844;9.660;2024-01-30T04:09:09;9.77;;;5.30;;
26920;SDS011;14483;47.844;9.660;2024-01-30T04:11:38;8.85;;;4.75;;
26920;SDS011;14483;47.844;9.660;2024-01-30T04:14:04;8.30;;;5.03;;
26920;SDS011;14483;47.844;9.660;2024-01-30T04:16:30;8.93;;;5.47;;
26920;SDS011;14483;47.844;9.660;2024-01-30T04:18:57;9.02;;;4.68;;
26920;SDS011;14483;47.844;9.660;2024-01-30T04:21:25;10.55;;;5.07;;
26920;SDS011;14483;47.844;9.660;2024-01-30T04:23:53;8.80;;;4.97;;
26920;SDS011;14483;47.844;9.660;2024-01-30T04:26:19;9.90;;;5.20;;
26920;SDS011;14483;47.844;9.660;2024-01-30T04:28:46;9.45;;;5.18;;
26920;SDS011;14483;47.844;9.660;2024-01-30T04:31:12;9.50;;;5.03;;
26920;SDS011;14483;47.844;9.660;2024-01-30T04:33:38;9.50;;;4.72;;
26920;SDS011;14483;47.844;9.660;2024-01-30T04:36:07;10.40;;;4.57;;
26920;SDS011;14483;47.844;9.660;2024-01-30T04:38:35;8.25;;;4.47;;
26920;SDS011;14483;47.844;9.660;2024-01-30T04:41:02;7.93;;;4.35;;
26920;SDS011;14483;47.844;9.660;2024-01-30T04:43:29;10.70;;;5.78;;
26920;SDS011;14483;47.844;9.660;2024-01-30T04:45:55;10.50;;;5.13;;
26920;SDS011;14483;47.844;9.660;2024-01-30T04:48:22;13.82;;;7.43;;
26920;SDS011;14483;47.844;9.660;2024-01-30T04:50:48;10.88;;;5.75;;
26920;SDS011;14483;47.844;9.660;2024-01-30T04:53:14;10.45;;;5.47;;
26920;SDS011;14483;47.844;9.660;2024-01-30T04:55:42;11.23;;;5.95;;
26920;SDS011;14483;47.844;9.660;2024-01-30T04:58:08;10.05;;;5.53;;
26920;SDS011;14483;47.844;9.660;2024-01-30T05:00:35;13.65;;;5.38;;
26920;SDS011;14483;47.844;9.660;2024-01-30T05:03:01;9.50;;;5.05;;
26920;SDS011;14483;47.844;9.660;2024-01-30T05:05:27;9.13;;;5.07;;
26920;SDS011;14483;47.844;9.660;2024-01-30T05:07:54;13.25;;;5.40;;
26920;SDS011;14483;47.844;9.660;2024-01-30T05:10:20;11.18;;;5.13;;
26920;SDS011;14483;47.844;9.660;2024-01-30T05:12:48;7.97;;;4.55;;
26920;SDS011;14483;47.844;9.660;2024-01-30T05:15:14;9.32;;;3.85;;
26920;SDS011;14483;47.844;9.660;2024-01-30T05:17:41;7.18;;;4.32;;
26920;SDS011;14483;47.844;9.660;2024-01-30T05:20:08;8.30;;;4.57;;
26920;SDS011;14483;47.844;9.660;2024-01-30T05:22:35;13.93;;;4.85;;
26920;SDS011;14483;47.844;9.660;2024-01-30T05:25:02;10.43;;;5.10;;
26920;SDS011;14483;47.844;9.660;2024-01-30T05:27:28;11.32;;;5.57;;
26920;SDS011;14483;47.844;9.660;2024-01-30T05:29:56;10.35;;;4.88;;
26920;SDS011;14483;47.844;9.660;2024-01-30T05:32:22;12.07;;;6.10;;
26920;SDS011;14483;47.844;9.660;2024-01-30T05:34:49;10.98;;;5.05;;
26920;SDS011;14483;47.844;9.660;2024-01-30T05:37:16;11.20;;;5.90;;
26920;SDS011;14483;47.844;9.660;2024-01-30T05:39:43;11.13;;;5.95;;
26920;SDS011;14483;47.844;9.660;2024-01-30T05:42:09;14.50;;;5.85;;
26920;SDS011;14483;47.844;9.660;2024-01-30T05:44:36;15.63;;;6.40;;
26920;SDS011;14483;47.844;9.660;2024-01-30T05:47:03;12.73;;;5.93;;
26920;SDS011;14483;47.844;9.660;2024-01-30T05:49:30;10.75;;;5.32;;
26920;SDS011;14483;47.844;9.660;2024-01-30T05:51:56;8.85;;;3.97;;
26920;SDS011;14483;47.844;9.660;2024-01-30T05:54:22;12.00;;;6.38;;
26920;SDS011;14483;47.844;9.660;2024-01-30T05:56:49;10.60;;;5.00;;
26920;SDS011;14483;47.844;9.660;2024-01-30T05:59:15;11.95;;;5.32;;
26920;SDS011;14483;47.844;9.660;2024-01-30T06:01:45;8.23;;;4.90;;
26920;SDS011;14483;47.844;9.660;2024-01-30T06:04:12;10.70;;;5.20;;
26920;SDS011;14483;47.844;9.660;2024-01-30T06:06:39;11.98;;;5.97;;
26920;SDS011;14483;47.844;9.660;2024-01-30T06:09:05;12.55;;;6.43;;
26920;SDS011;14483;47.844;9.660;2024-01-30T06:11:33;16.35;;;8.27;;
26920;SDS011;14483;47.844;9.660;2024-01-30T06:13:59;15.02;;;9.30;;
26920;SDS011;14483;47.844;9.660;2024-01-30T06:16:25;11.00;;;6.85;;
26920;SDS011;14483;47.844;9.660;2024-01-30T06:18:54;9.98;;;6.05;;
26920;SDS011;14483;47.844;9.660;2024-01-30T06:21:23;8.23;;;4.53;;
26920;SDS011;14483;47.844;9.660;2024-01-30T06:23:49;12.50;;;5.03;;
26920;SDS011;14483;47.844;9.660;2024-01-30T06:26:16;8.15;;;4.55;;
26920;SDS011;14483;47.844;9.660;2024-01-30T06:28:42;9.52;;;4.15;;
26920;SDS011;14483;47.844;9.660;2024-01-30T06:31:09;9.50;;;4.85;;
26920;SDS011;14483;47.844;9.660;2024-01-30T06:33:35;11.45;;;5.05;;
26920;SDS011;14483;47.844;9.660;2024-01-30T06:36:02;7.70;;;4.22;;
26920;SDS011;14483;47.844;9.660;2024-01-30T06:38:30;9.43;;;4.72;;
26920;SDS011;14483;47.844;9.660;2024-01-30T06:40:56;9.52;;;4.65;;
26920;SDS011;14483;47.844;9.660;2024-01-30T06:43:22;10.23;;;5.43;;
26920;SDS011;14483;47.844;9.660;2024-01-30T06:45:49;11.27;;;5.47;;
26920;SDS011;14483;47.844;9.660;2024-01-30T06:48:16;12.10;;;6.45;;
26920;SDS011;14483;47.844;9.660;2024-01-30T06:50:43;12.60;;;6.45;;
26920;SDS011;14483;47.844;9.660;2024-01-30T06:53:10;10.57;;;5.78;;
26920;SDS011;14483;47.844;9.660;2024-01-30T06:55:38;8.55;;;4.70;;
26920;SDS011;14483;47.844;9.660;2024-01-30T06:58:04;13.48;;;4.97;;
26920;SDS011;14483;47.844;9.660;2024-01-30T07:00:31;11.35;;;5.32;;
26920;SDS011;14483;47.844;9.660;2024-01-30T07:02:57;12.48;;;5.80;;
26920;SDS011;14483;47.844;9.660;2024-01-30T07:05:23;7.85;;;4.32;;
26920;SDS011;14483;47.844;9.660;2024-01-30T07:07:50;11.10;;;4.03;;
26920;SDS011;14483;47.844;9.660;2024-01-30T07:10:16;10.48;;;4.68;;
26920;SDS011;14483;47.844;9.660;2024-01-30T07:12:44;9.30;;;5.18;;
26920;SDS011;14483;47.844;9.660;2024-01-30T07:15:10;10.57;;;5.00;;
26920;SDS011;14483;47.844;9.660;2024-01-30T07:17:38;8.15;;;4.43;;
26920;SDS011;14483;47.844;9.660;2024-01-30T07:20:05;6.93;;;4.07;;
26920;SDS011;14483;47.844;9.660;2024-01-30T07:22:32;10.07;;;4.28;;
26920;SDS011;14483;47.844;9.660;2024-01-30T07:24:59;7.68;;;4.50;;
26920;SDS011;14483;47.844;9.660;2024-01-30T07:27:25;10.50;;;5.30;;
26920;SDS011;14483;47.844;9.660;2024-01-30T07:29:53;13.70;;;5.25;;
26920;SDS011;14483;47.844;9.660;2024-01-30T07:32:19;9.30;;;5.28;;
26920;SDS011;14483;47.844;9.660;2024-01-30T07:34:45;15.60;;;7.15;;
26920;SDS011;14483;47.844;9.660;2024-01-30T07:37:12;9.60;;;5.13;;
26920;SDS011;14483;47.844;9.660;2024-01-30T07:39:40;14.80;;;7.30;;
26920;SDS011;14483;47.844;9.660;2024-01-30T07:42:07;14.35;;;6.85;;
26920;SDS011;14483;47.844;9.660;2024-01-30T07:44:33;14.88;;;6.30;;
26920;SDS011;14483;47.844;9.660;2024-01-30T07:47:01;14.60;;;6.85;;
26920;SDS011;14483;47.844;9.660;2024-01-30T07:49:28;15.23;;;7.05;;
26920;SDS011;14483;47.844;9.660;2024-01-30T07:51:54;16.77;;;7.10;;
26920;SDS011;14483;47.844;9.660;2024-01-30T07:54:21;14.57;;;7.75;;
26920;SDS011;14483;47.844;9.660;2024-01-30T07:56:48;12.82;;;7.18;;
26920;SDS011;14483;47.844;9.660;2024-01-30T07:59:14;15.95;;;7.25;;
26920;SDS011;14483;47.844;9.660;2024-01-30T08:01:41;12.60;;;7.18;;
26920;SDS011;14483;47.844;9.660;2024-01-30T08:04:09;11.57;;;5.97;;
26920;SDS011;14483;47.844;9.660;2024-01-30T08:06:35;10.13;;;5.35;;
26920;SDS011;14483;47.844;9.660;2024-01-30T08:09:02;9.85;;;5.75;;
26920;SDS011;14483;47.844;9.660;2024-01-30T08:11:28;9.25;;;5.60;;
26920;SDS011;14483;47.844;9.660;2024-01-30T08:13:55;12.00;;;6.85;;
26920;SDS011;14483;47.844;9.660;2024-01-30T08:16:22;18.65;;;6.78;;
26920;SDS011;14483;47.844;9.660;2024-01-30T08:18:48;18.25;;;8.10;;
26920;SDS011;14483;47.844;9.660;2024-01-30T08:21:16;19.67;;;9.05;;
26920;SDS011;14483;47.844;9.660;2024-01-30T08:23:42;20.90;;;8.45;;
26920;SDS011;14483;47.844;9.660;2024-01-30T08:26:09;20.60;;;8.85;;
26920;SDS011;14483;47.844;9.660;2024-01-30T08:28:35;17.77;;;9.38;;
26920;SDS011;14483;47.844;9.660;2024-01-30T08:31:01;18.85;;;7.88;;
26920;SDS011;14483;47.844;9.660;2024-01-30T08:33:28;15.05;;;7.43;;
26920;SDS011;14483;47.844;9.660;2024-01-30T08:35:54;15.07;;;7.93;;
26920;SDS011;14483;47.844;9.660;2024-01-30T08:38:22;15.65;;;7.20;;
26920;SDS011;14483;47.844;9.660;2024-01-30T08:40:48;20.20;;;9.75;;
26920;SDS011;14483;47.844;9.660;2024-01-30T08:43:15;18.13;;;8.30;;
26920;SDS011;14483;47.844;9.660;2024-01-30T08:45:41;16.25;;;7.20;;
26920;SDS011;14483;47.844;9.660;2024-01-30T08:48:08;17.85;;;8.60;;
26920;SDS011;14483;47.844;9.660;2024-01-30T08:50:34;20.02;;;8.68;;
26920;SDS011;14483;47.844;9.660;2024-01-30T08:53:00;16.23;;;8.00;;
26920;SDS011;14483;47.844;9.660;2024-01-30T08:55:29;17.98;;;8.07;;
26920;SDS011;14483;47.844;9.660;2024-01-30T08:57:56;16.17;;;8.00;;
26920;SDS011;14483;47.844;9.660;2024-01-30T09:00:22;24.13;;;9.02;;
26920;SDS011;14483;47.844;9.660;2024-01-30T09:02:48;16.92;;;8.65;;
26920;SDS011;14483;47.844;9.660;2024-01-30T09:05:15;22.05;;;8.82;;
26920;SDS011;14483;47.844;9.660;2024-01-30T09:07:41;25.38;;;9.50;;
26920;SDS011;14483;47.844;9.660;2024-01-30T09:10:08;20.80;;;7.80;;
26920;SDS011;14483;47.844;9.660;2024-01-30T09:12:36;18.05;;;7.85;;
26920;SDS011;14483;47.844;9.660;2024-01-30T09:15:03;18.77;;;7.78;;
26920;SDS011;14483;47.844;9.660;2024-01-30T09:17:29;21.92;;;10.30;;
26920;SDS011;14483;47.844;9.660;2024-01-30T09:19:56;20.83;;;8.23;;
26920;SDS011;14483;47.844;9.660;2024-01-30T09:22:22;17.38;;;7.05;;
26920;SDS011;14483;47.844;9.660;2024-01-30T09:24:49;12.93;;;6.60;;
26920;SDS011;14483;47.844;9.660;2024-01-30T09:27:15;17.13;;;7.97;;
26920;SDS011;14483;47.844;9.660;2024-01-30T09:29:43;13.98;;;6.82;;
26920;SDS011;14483;47.844;9.660;2024-01-30T09:32:09;11.73;;;6.20;;
26920;SDS011;14483;47.844;9.660;2024-01-30T09:34:35;18.20;;;7.50;;
26920;SDS011;14483;47.844;9.660;2024-01-30T09:37:02;22.17;;;7.25;;
26920;SDS011;14483;47.844;9.660;2024-01-30T09:39:28;15.25;;;6.72;;
26920;SDS011;14483;47.844;9.660;2024-01-30T09:41:55;13.40;;;6.68;;
26920;SDS011;14483;47.844;9.660;2024-01-30T09:44:25;16.42;;;8.38;;
26920;SDS011;14483;47.844;9.660;2024-01-30T09:46:53;16.73;;;6.78;;
26920;SDS011;14483;47.844;9.660;2024-01-30T09:49:19;20.08;;;7.88;;
26920;SDS011;14483;47.844;9.660;2024-01-30T09:51:46;16.00;;;7.32;;
26920;SDS011;14483;47.844;9.660;2024-01-30T09:54:13;17.15;;;7.43;;
26920;SDS011;14483;47.844;9.660;2024-01-30T09:56:40;15.93;;;7.40;;
26920;SDS011;14483;47.844;9.660;2024-01-30T09:59:06;16.25;;;5.85;;
26920;SDS011;14483;47.844;9.660;2024-01-30T10:01:34;13.10;;;7.05;;
26920;SDS011;14483;47.844;9.660;2024-01-30T10:04:01;16.23;;;7.00;;
26920;SDS011;14483;47.844;9.660;2024-01-30T10:06:28;14.48;;;6.88;;
26920;SDS011;14483;47.844;9.660;2024-01-30T10:08:55;14.73;;;7.03;;
26920;SDS011;14483;47.844;9.660;2024-01-30T10:11:21;22.65;;;8.85;;
26920;SDS011;14483;47.844;9.660;2024-01-30T10:13:48;22.90;;;9.65;;
26920;SDS011;14483;47.844;9.660;2024-01-30T10:16:15;26.27;;;10.93;;
26920;SDS011;14483;47.844;9.660;2024-01-30T10:18:41;24.13;;;11.68;;
26920;SDS011;14483;47.844;9.660;2024-01-30T10:21:09;24.30;;;10.57;;
26920;SDS011;14483;47.844;9.660;2024-01-30T10:23:36;21.48;;;9.75;;
26920;SDS011;14483;47.844;9.660;2024-01-30T10:26:02;26.42;;;10.43;;
26920;SDS011;14483;47.844;9.660;2024-01-30T10:28:29;20.85;;;9.07;;
26920;SDS011;14483;47.844;9.660;2024-01-30T10:30:58;19.58;;;9.50;;
26920;SDS011;14483;47.844;9.660;2024-01-30T10:33:25;16.95;;;8.52;;
26920;SDS011;14483;47.844;9.660;2024-01-30T10:35:52;17.17;;;8.63;;
26920;SDS011;14483;47.844;9.660;2024-01-30T10:38:21;27.35;;;9.30;;
26920;SDS011;14483;47.844;9.660;2024-01-30T10:40:49;16.08;;;8.75;;
26920;SDS011;14483;47.844;9.660;2024-01-30T10:43:19;19.98;;;8.88;;
26920;SDS011;14483;47.844;9.660;2024-01-30T10:45:46;14.85;;;7.45;;
26920;SDS011;14483;47.844;9.660;2024-01-30T10:48:15;17.20;;;8.60;;
26920;SDS011;14483;47.844;9.660;2024-01-30T10:50:43;21.20;;;9.05;;
26920;SDS011;14483;47.844;9.660;2024-01-30T10:53:11;20.23;;;9.82;;
26920;SDS011;14483;47.844;9.660;2024-01-30T10:55:39;21.02;;;9.77;;
26920;SDS011;14483;47.844;9.660;2024-01-30T10:58:07;17.73;;;8.50;;
26920;SDS011;14483;47.844;9.660;2024-01-30T11:00:35;18.05;;;8.57;;
26920;SDS011;14483;47.844;9.660;2024-01-30T11:03:02;19.48;;;10.13;;
26920;SDS011;14483;47.844;9.660;2024-01-30T11:05:29;21.70;;;10.65;;
26920;SDS011;14483;47.844;9.660;2024-01-30T11:07:55;19.00;;;9.93;;
26920;SDS011;14483;47.844;9.660;2024-01-30T11:10:21;17.95;;;9.90;;
26920;SDS011;14483;47.844;9.660;2024-01-30T11:12:52;17.63;;;9.48;;
26920;SDS011;14483;47.844;9.660;2024-01-30T11:15:18;18.30;;;10.05;;
26920;SDS011;14483;47.844;9.660;2024-01-30T11:17:49;23.63;;;10.20;;
26920;SDS011;14483;47.844;9.660;2024-01-30T11:20:16;21.88;;;11.38;;
26920;SDS011;14483;47.844;9.660;2024-01-30T11:22:44;23.08;;;10.48;;
26920;SDS011;14483;47.844;9.660;2024-01-30T11:25:11;21.10;;;10.88;;
26920;SDS011;14483;47.844;9.660;2024-01-30T11:27:38;17.38;;;8.77;;
26920;SDS011;14483;47.844;9.660;2024-01-30T11:30:07;17.52;;;9.55;;
26920;SDS011;14483;47.844;9.660;2024-01-30T11:32:33;16.45;;;7.95;;
26920;SDS011;14483;47.844;9.660;2024-01-30T11:35:00;15.93;;;7.57;;
26920;SDS011;14483;47.844;9.660;2024-01-30T11:37:26;11.90;;;7.07;;
26920;SDS011;14483;47.844;9.660;2024-01-30T11:39:53;15.07;;;7.90;;
26920;SDS011;14483;47.844;9.660;2024-01-30T11:42:19;12.75;;;7.72;;
26920;SDS011;14483;47.844;9.660;2024-01-30T11:44:47;15.75;;;8.18;;
26920;SDS011;14483;47.844;9.660;2024-01-30T11:47:15;14.77;;;8.18;;
26920;SDS011;14483;47.844;9.660;2024-01-30T11:49:42;18.92;;;9.45;;
26920;SDS011;14483;47.844;9.660;2024-01-30T11:52:09;15.02;;;8.48;;
26920;SDS011;14483;47.844;9.660;2024-01-30T11:54:35;18.90;;;9.85;;
26920;SDS011;14483;47.844;9.660;2024-01-30T11:57:02;18.35;;;9.52;;
26920;SDS011;14483;47.844;9.660;2024-01-30T11:59:28;15.50;;;8.20;;
26920;SDS011;14483;47.844;9.660;2024-01-30T12:01:55;17.02;;;9.20;;
26920;SDS011;14483;47.844;9.660;2024-01-30T12:04:23;19.23;;;10.30;;
26920;SDS011;14483;47.844;9.660;2024-01-30T12:06:50;16.00;;;8.80;;
26920;SDS011;14483;47.844;9.660;2024-01-30T12:09:17;16.23;;;9.10;;
26920;SDS011;14483;47.844;9.660;2024-01-30T12:11:43;16.15;;;9.20;;
26920;SDS011;14483;47.844;9.660;2024-01-30T12:14:10;19.23;;;9.93;;
26920;SDS011;14483;47.844;9.660;2024-01-30T12:16:37;16.17;;;8.30;;
26920;SDS011;14483;47.844;9.660;2024-01-30T12:19:03;17.33;;;9.20;;
26920;SDS011;14483;47.844;9.660;2024-01-30T12:21:31;14.52;;;8.27;;
26920;SDS011;14483;47.844;9.660;2024-01-30T12:23:57;15.38;;;8.82;;
26920;SDS011;14483;47.844;9.660;2024-01-30T12:26:24;13.45;;;8.07;;
26920;SDS011;14483;47.844;9.660;2024-01-30T12:28:53;15.52;;;8.68;;
26920;SDS011;14483;47.844;9.660;2024-01-30T12:31:25;15.73;;;8.95;;
26920;SDS011;14483;47.844;9.660;2024-01-30T12:33:51;16.67;;;8.48;;
26920;SDS011;14483;47.844;9.660;2024-01-30T12:36:18;15.05;;;8.10;;
26920;SDS011;14483;47.844;9.660;2024-01-30T12:38:46;17.05;;;9.05;;
26920;SDS011;14483;47.844;9.660;2024-01-30T12:41:12;19.38;;;8.27;;
26920;SDS011;14483;47.844;9.660;2024-01-30T12:43:39;16.35;;;8.65;;
26920;SDS011;14483;47.844;9.660;2024-01-30T12:46:05;18.67;;;9.02;;
26920;SDS011;14483;47.844;9.660;2024-01-30T12:48:32;18.15;;;8.43;;
26920;SDS011;14483;47.844;9.660;2024-01-30T12:50:58;14.13;;;7.75;;
26920;SDS011;14483;47.844;9.660;2024-01-30T12:53:24;15.82;;;8.77;;
26920;SDS011;14483;47.844;9.660;2024-01-30T12:55:52;16.27;;;9.05;;
26920;SDS011;14483;47.844;9.660;2024-01-30T12:58:19;26.70;;;8.88;;
26920;SDS011;14483;47.844;9.660;2024-01-30T13:00:45;14.90;;;8.68;;
26920;SDS011;14483;47.844;9.660;2024-01-30T13:03:12;15.07;;;8.15;;
26920;SDS011;14483;47.844;9.660;2024-01-30T13:05:38;17.80;;;8.35;;
26920;SDS011;14483;47.844;9.660;2024-01-30T13:08:05;17.05;;;8.88;;
26920;SDS011;14483;47.844;9.660;2024-01-30T13:10:31;16.20;;;8.40;;
26920;SDS011;14483;47.844;9.660;2024-01-30T13:12:59;15.00;;;8.23;;
26920;SDS011;14483;47.844;9.660;2024-01-30T13:15:25;16.48;;;8.52;;
26920;SDS011;14483;47.844;9.660;2024-01-30T13:17:52;15.60;;;8.60;;
26920;SDS011;14483;47.844;9.660;2024-01-30T13:20:19;17.25;;;8.32;;
26920;SDS011;14483;47.844;9.660;2024-01-30T13:22:47;15.95;;;8.75;;
26920;SDS011;14483;47.844;9.660;2024-01-30T13:25:13;17.02;;;8.52;;
26920;SDS011;14483;47.844;9.660;2024-01-30T13:27:40;13.60;;;7.82;;
26920;SDS011;14483;47.844;9.660;2024-01-30T13:30:08;18.75;;;8.07;;
26920;SDS011;14483;47.844;9.660;2024-01-30T13:32:35;22.42;;;8.57;;
26920;SDS011;14483;47.844;9.660;2024-01-30T13:35:01;27.98;;;9.93;;
26920;SDS011;14483;47.844;9.660;2024-01-30T13:37:28;17.50;;;9.48;;
26920;SDS011;14483;47.844;9.660;2024-01-30T13:39:54;15.80;;;8.98;;
26920;SDS011;14483;47.844;9.660;2024-01-30T13:42:21;14.73;;;8.80;;
26920;SDS011;14483;47.844;9.660;2024-01-30T13:44:48;16.85;;;8.60;;
26920;SDS011;14483;47.844;9.660;2024-01-30T13:47:16;16.40;;;8.65;;
26920;SDS011;14483;47.844;9.660;2024-01-30T13:49:44;14.85;;;8.68;;
26920;SDS011;14483;47.844;9.660;2024-01-30T13:52:10;11.75;;;7.38;;
26920;SDS011;14483;47.844;9.660;2024-01-30T13:54:36;15.98;;;9.00;;
26920;SDS011;14483;47.844;9.660;2024-01-30T13:57:03;16.60;;;7.22;;
26920;SDS011;14483;47.844;9.660;2024-01-30T13:59:29;18.50;;;6.85;;
26920;SDS011;14483;47.844;9.660;2024-01-30T14:01:55;13.23;;;6.88;;
26920;SDS011;14483;47.844;9.660;2024-01-30T14:04:23;14.40;;;7.07;;
26920;SDS011;14483;47.844;9.660;2024-01-30T14:06:49;14.70;;;6.88;;
26920;SDS011;14483;47.844;9.660;2024-01-30T14:09:16;18.83;;;6.78;;
26920;SDS011;14483;47.844;9.660;2024-01-30T14:11:42;11.18;;;5.57;;
26920;SDS011;14483;47.844;9.660;2024-01-30T14:14:08;11.15;;;5.82;;
26920;SDS011;14483;47.844;9.660;2024-01-30T14:16:35;12.18;;;5.63;;
26920;SDS011;14483;47.844;9.660;2024-01-30T14:19:01;8.88;;;5.32;;
26920;SDS011;14483;47.844;9.660;2024-01-30T14:21:29;12.13;;;5.53;;
26920;SDS011;14483;47.844;9.660;2024-01-30T14:23:55;10.88;;;5.30;;
26920;SDS011;14483;47.844;9.660;2024-01-30T14:26:22;9.68;;;5.70;;
26920;SDS011;14483;47.844;9.660;2024-01-30T14:28:48;11.82;;;5.93;;
26920;SDS011;14483;47.844;9.660;2024-01-30T14:31:15;14.55;;;6.80;;
26920;SDS011;14483;47.844;9.660;2024-01-30T14:33:42;12.25;;;6.28;;
26920;SDS011;14483;47.844;9.660;2024-01-30T14:36:08;16.05;;;6.20;;